Time;durP1;ratioP1;P1;durP2;ratioP2;P2;SDS_P1;SDS_P2;PMS_P1;PMS_P2;Temp;Humidity;BMP_temperature;BMP_pressure;BME280_temperature;BME280_humidity;BME280_pressure;Samples;Min_cycle;Max_cycle;Signal;HPM_P1;HPM_P2
2022/01/19 00:01:01;;;;;;;21.88;8.63;;;;;;;5.52;100.00;103311.38;5082663;28;20413;-37
2022/01/19 00:03:30;;;;;;;23.70;7.68;;;;;;;5.53;100.00;103304.78;5078755;28;20481;-36
2022/01/19 00:05:58;;;;;;;25.83;7.60;;;;;;;5.53;100.00;103290.94;5080526;28;20054;-33
2022/01/19 00:08:26;;;;;;;19.60;6.05;;;;;;;5.51;100.00;103280.06;5078354;28;20048;-36
2022/01/19 00:10:57;;;;;;;20.85;6.25;;;;;;;5.53;100.00;103282.63;5080296;28;20113;-38
2022/01/19 00:13:26;;;;;;;21.70;6.85;;;;;;;5.51;100.00;103282.84;5077779;28;20470;-30
2022/01/19 00:15:54;;;;;;;19.05;6.78;;;;;;;5.53;100.00;103271.56;5080953;28;20032;-38
2022/01/19 00:18:24;;;;;;;23.67;8.00;;;;;;;5.54;100.00;103264.97;5077907;28;20120;-37
2022/01/19 00:20:55;;;;;;;24.58;9.10;;;;;;;5.54;100.00;103271.34;5080194;28;20036;-33
2022/01/19 00:23:23;;;;;;;23.92;9.18;;;;;;;5.53;100.00;103258.56;5079278;28;20386;-37
2022/01/19 00:25:54;;;;;;;22.20;8.23;;;;;;;5.53;100.00;103264.09;5078405;28;20048;-32
2022/01/19 00:28:23;;;;;;;19.08;8.07;;;;;;;5.52;100.00;103267.94;5081063;28;20056;-37
2022/01/19 00:30:51;;;;;;;25.58;7.72;;;;;;;5.50;100.00;103258.13;5076780;28;20409;-39
2022/01/19 00:33:19;;;;;;;27.73;8.30;;;;;;;5.50;100.00;103255.34;5081626;28;20135;-36
2022/01/19 00:35:48;;;;;;;22.55;7.32;;;;;;;5.47;100.00;103242.78;5061029;28;20044;-33
2022/01/19 00:38:17;;;;;;;17.42;5.70;;;;;;;5.45;100.00;103225.50;5075834;28;20052;-34
2022/01/19 00:40:46;;;;;;;18.63;5.22;;;;;;;5.45;100.00;103196.97;5075253;28;20048;-36
2022/01/19 00:43:15;;;;;;;20.60;6.45;;;;;;;5.44;100.00;103181.41;5084524;28;20048;-40
2022/01/19 00:45:45;;;;;;;20.35;6.75;;;;;;;5.43;100.00;103171.41;5075709;28;20040;-34
2022/01/19 00:48:25;;;;;;;17.70;6.13;;;;;;;5.42;100.00;103165.00;5084612;28;20061;-37
2022/01/19 00:50:53;;;;;;;21.05;6.03;;;;;;;5.45;100.00;103155.44;5064482;28;20051;-29
2022/01/19 00:53:21;;;;;;;21.83;6.45;;;;;;;5.44;100.00;103154.56;5083579;28;20646;-36
2022/01/19 00:55:49;;;;;;;25.45;7.20;;;;;;;5.43;100.00;103152.00;5075517;28;20413;-35
2022/01/19 00:58:18;;;;;;;24.73;6.78;;;;;;;5.41;100.00;103165.22;5084129;28;20523;-37
2022/01/19 01:00:48;;;;;;;18.27;5.70;;;;;;;5.40;100.00;103167.13;5074764;28;20395;-36
2022/01/19 01:03:17;;;;;;;19.30;5.88;;;;;;;5.38;100.00;103162.88;5083395;28;20048;-37
2022/01/19 01:05:46;;;;;;;18.20;5.97;;;;;;;5.38;100.00;103165.66;5076200;28;20071;-35
2022/01/19 01:08:14;;;;;;;23.30;7.13;;;;;;;5.35;100.00;103163.28;5080525;28;20052;-35
2022/01/19 01:10:43;;;;;;;19.63;6.85;;;;;;;5.35;100.00;103164.16;5059836;28;20051;-39
2022/01/19 01:13:23;;;;;;;27.30;8.93;;;;;;;5.33;100.00;103157.13;5080195;28;20143;-34
2022/01/19 01:16:02;;;;;;;16.95;7.05;;;;;;;5.31;100.00;103150.94;5070908;28;20580;-38
2022/01/19 01:18:33;;;;;;;15.30;6.72;;;;;;;5.28;100.00;103145.81;5071893;28;20044;-37
2022/01/19 01:21:04;;;;;;;17.92;6.00;;;;;;;5.25;100.00;103143.44;5059978;28;20059;-37
2022/01/19 01:23:35;;;;;;;21.98;6.63;;;;;;;5.20;100.00;103147.69;5079350;28;20109;-39
2022/01/19 01:26:04;;;;;;;19.63;7.03;;;;;;;5.14;100.00;103134.69;5060225;28;20044;-37
2022/01/19 01:28:33;;;;;;;20.50;6.85;;;;;;;5.12;100.00;103122.97;5061139;28;20086;-40
2022/01/19 01:31:04;;;;;;;21.20;6.93;;;;;;;5.08;100.00;103113.38;5058588;28;20113;-33
2022/01/19 01:33:32;;;;;;;19.10;8.40;;;;;;;5.03;100.00;103110.38;5079748;28;20048;-32
2022/01/19 01:36:01;;;;;;;26.58;9.57;;;;;;;4.97;100.00;103114.00;5058431;28;20375;-35
2022/01/19 01:38:29;;;;;;;29.70;9.80;;;;;;;4.98;100.00;103098.25;5079661;28;20078;-37
2022/01/19 01:41:13;;;;;;;26.48;9.93;;;;;;;4.96;100.00;103112.28;5059441;28;20052;-31
2022/01/19 01:43:46;;;;;;;31.60;10.38;;;;;;;4.90;100.00;103110.31;5066304;28;20052;-40
2022/01/19 01:46:30;;;;;;;37.65;13.40;;;;;;;4.85;100.00;103097.09;5068974;28;20101;-35
2022/01/19 01:48:58;;;;;;;38.75;16.23;;;;;;;4.84;100.00;103083.47;5088797;28;20417;-32
2022/01/19 01:54:11;;;;;;;44.83;15.77;;;;;;;4.83;100.00;103065.19;5086012;28;20037;-34
2022/01/19 01:56:40;;;;;;;37.28;14.07;;;;;;;4.82;100.00;103071.78;5086526;28;20175;-36
2022/01/19 01:59:10;;;;;;;44.00;15.00;;;;;;;4.79;100.00;103066.69;5068220;28;20063;-37
2022/01/19 02:01:43;;;;;;;;;;;;;;;4.74;100.00;103071.97;5087752;28;20051;-36
2022/01/19 02:04:13;;;;;;;36.95;14.35;;;;;;;4.69;100.00;103061.53;5064801;28;19970;-37
2022/01/19 02:07:03;;;;;;;48.08;16.17;;;;;;;4.71;100.00;103064.06;5064620;28;20041;-36
2022/01/19 02:09:37;;;;;;;35.53;13.65;;;;;;;4.69;100.00;103068.97;5072771;28;20069;-32
2022/01/19 02:23:20;;;;;;;34.20;14.45;;;;;;;4.56;100.00;103053.19;5071551;28;20457;-34
2022/01/19 02:25:50;;;;;;;32.15;13.32;;;;;;;4.53;100.00;103049.97;5086185;28;20050;-38
2022/01/19 02:40:10;;;;;;;40.08;16.05;;;;;;;4.47;100.00;103022.06;5062971;28;20084;-38
2022/01/19 02:42:38;;;;;;;36.60;17.00;;;;;;;4.43;100.00;103014.38;5077777;28;20078;-37
2022/01/19 02:50:39;;;;;;;42.35;17.48;;;;;;;4.41;100.00;103010.97;5086209;28;20052;-33
2022/01/19 02:53:08;;;;;;;34.40;17.42;;;;;;;4.40;100.00;103014.78;5070245;28;20036;-32
2022/01/19 02:55:37;;;;;;;36.88;16.83;;;;;;;4.41;100.00;103017.34;5068906;28;20056;-35
2022/01/19 02:58:05;;;;;;;36.85;16.27;;;;;;;4.42;100.00;103021.81;5081907;28;20055;-32
2022/01/19 03:08:43;;;;;;;40.22;16.95;;;;;;;4.43;100.00;103004.19;5061702;28;20512;-35
2022/01/19 03:09:20;;;;;;;33.72;16.80;;;;;;;4.43;100.00;102995.88;5087155;28;20052;-35
2022/01/19 03:11:48;;;;;;;35.90;16.67;;;;;;;4.46;100.00;102995.47;5084187;28;20051;-37
2022/01/19 03:14:17;;;;;;;38.65;16.90;;;;;;;4.50;100.00;102996.78;5069141;28;20501;-37
2022/01/19 03:16:45;;;;;;;39.03;18.65;;;;;;;4.52;100.00;102996.59;5084446;28;20351;-33
2022/01/19 03:19:14;;;;;;;39.85;16.98;;;;;;;4.56;100.00;102991.50;5085102;28;20036;-40
2022/01/19 03:21:43;;;;;;;36.88;17.33;;;;;;;4.58;100.00;102993.00;5066998;28;20044;-40
2022/01/19 03:24:12;;;;;;;48.83;18.70;;;;;;;4.58;100.00;102994.91;5083225;28;20066;-38
2022/01/19 03:26:42;;;;;;;43.33;17.60;;;;;;;4.59;100.00;102982.78;5086701;28;20401;-40
2022/01/19 03:29:16;;;;;;;37.28;16.35;;;;;;;4.60;100.00;102990.84;5069999;28;20139;-35
2022/01/19 03:31:45;;;;;;;40.85;17.02;;;;;;;4.61;100.00;102975.13;5087559;28;20108;-34
2022/01/19 03:34:13;;;;;;;34.33;16.23;;;;;;;4.64;100.00;102969.16;5080561;28;20409;-37
2022/01/19 03:36:43;;;;;;;40.08;17.42;;;;;;;4.65;100.00;102959.81;5069145;28;20071;-35
2022/01/19 03:39:13;;;;;;;33.88;15.73;;;;;;;4.68;100.00;102951.09;5061708;28;20062;-38
2022/01/19 03:41:43;;;;;;;33.22;15.93;;;;;;;4.72;100.00;102946.88;5069878;28;20070;-35
2022/01/19 03:44:10;;;;;;;33.35;14.57;;;;;;;4.73;100.00;102941.13;5073523;28;20505;-32
2022/01/19 03:46:53;;;;;;;41.15;16.20;;;;;;;4.74;100.00;102942.84;5087880;28;20483;-35
2022/01/19 03:49:24;;;;;;;36.05;15.60;;;;;;;4.74;100.00;102933.69;5060329;28;20466;-33
2022/01/19 03:51:58;;;;;;;;;;;;;;;4.73;100.00;102926.44;5070194;28;20562;-35
2022/01/19 03:54:27;;;;;;;33.10;13.30;;;;;;;4.74;100.00;102919.88;5061184;28;19942;-34
2022/01/19 03:56:58;;;;;;;33.47;13.63;;;;;;;4.79;100.00;102917.31;5083296;28;20417;-37
2022/01/19 03:59:26;;;;;;;30.70;13.68;;;;;;;4.81;100.00;102910.50;5085539;28;20048;-34
2022/01/19 04:01:54;;;;;;;34.28;13.70;;;;;;;4.86;100.00;102909.88;5076547;28;20044;-33
2022/01/19 04:04:34;;;;;;;36.75;14.65;;;;;;;4.86;100.00;102909.88;5072058;28;20068;-37
2022/01/19 04:07:08;;;;;;;32.53;14.30;;;;;;;4.91;100.00;102904.56;5058625;28;20041;-35
2022/01/19 04:09:40;;;;;;;34.83;15.40;;;;;;;4.92;100.00;102899.88;5066941;28;20048;-35
2022/01/19 04:12:15;;;;;;;33.88;15.80;;;;;;;4.94;100.00;102895.00;5075583;28;20047;-33
2022/01/19 04:14:43;;;;;;;37.05;16.38;;;;;;;4.94;100.00;102881.16;5073959;28;20044;-37
2022/01/19 04:17:13;;;;;;;45.85;18.38;;;;;;;4.96;100.00;102879.03;5075993;28;20509;-34
2022/01/19 04:19:44;;;;;;;43.03;18.02;;;;;;;4.99;100.00;102887.75;5072279;28;20135;-32
2022/01/19 04:22:21;;;;;;;43.50;18.05;;;;;;;4.99;100.00;102882.22;5072640;28;20048;-33
2022/01/19 04:24:56;;;;;;;40.13;18.88;;;;;;;5.05;100.00;102883.28;5071804;28;20041;-35
2022/01/19 04:27:33;;;;;;;40.45;19.08;;;;;;;5.09;100.00;102873.50;5059559;28;20105;-41
2022/01/19 04:30:06;;;;;;;40.10;19.17;;;;;;;5.11;100.00;102868.59;5072338;28;20052;-35
2022/01/19 04:32:46;;;;;;;44.58;18.80;;;;;;;5.13;100.00;102861.78;5057805;28;20050;-37
2022/01/19 04:35:20;;;;;;;47.45;20.60;;;;;;;5.17;100.00;102862.22;5072014;28;20135;-37
2022/01/19 05:03:35;;;;;;;31.02;12.68;;;;;;;5.42;100.00;102805.06;5083303;28;20051;-34
2022/01/19 05:06:10;;;;;;;32.38;13.23;;;;;;;5.45;100.00;102807.41;5081168;28;20509;-38
2022/01/19 05:08:57;;;;;;;32.13;13.40;;;;;;;5.50;100.00;102804.00;5068264;28;20102;-37
2022/01/19 05:14:12;;;;;;;28.50;11.40;;;;;;;5.57;100.00;102781.84;5056718;28;20059;-37
2022/01/19 05:16:42;;;;;;;33.50;12.20;;;;;;;5.61;100.00;102774.75;5063498;28;20561;-41
2022/01/19 05:19:11;;;;;;;30.75;10.52;;;;;;;5.61;100.00;102764.53;5070788;28;20081;-40
2022/01/19 05:21:42;;;;;;;25.88;10.13;;;;;;;5.59;100.00;102760.31;5070876;28;20044;-33
2022/01/19 05:24:12;;;;;;;28.92;9.23;;;;;;;5.60;100.00;102748.13;5077096;28;20408;-34
2022/01/19 05:26:57;;;;;;;22.40;9.02;;;;;;;5.62;100.00;102743.22;5071066;28;20489;-37
2022/01/19 05:29:32;;;;;;;25.20;8.93;;;;;;;5.66;100.00;102725.97;5057461;28;20072;-40
2022/01/19 05:32:01;;;;;;;29.45;9.32;;;;;;;5.70;100.00;102732.78;5080757;28;20129;-40
2022/01/19 05:34:29;;;;;;;20.63;8.82;;;;;;;5.71;100.00;102714.22;5059039;28;20047;-36
2022/01/19 05:37:10;;;;;;;25.42;9.52;;;;;;;5.71;100.00;102720.63;5071185;28;20513;-39
2022/01/19 05:40:01;;;;;;;24.30;9.07;;;;;;;5.67;100.00;102707.44;5055788;28;20649;-40
2022/01/19 05:42:46;;;;;;;;;;;;;;;5.64;100.00;102717.03;5077310;28;20057;-35
2022/01/19 05:45:14;;;;;;;28.10;9.15;;;;;;;5.64;100.00;102711.50;5057949;28;19966;-39
2022/01/19 05:47:45;;;;;;;27.77;9.68;;;;;;;5.72;100.00;102705.69;5060811;28;20139;-35
2022/01/19 05:50:14;;;;;;;26.70;9.65;;;;;;;5.75;100.00;102698.88;5084540;28;20103;-36
2022/01/19 05:52:44;;;;;;;28.23;10.35;;;;;;;5.74;100.00;102699.94;5061949;28;20056;-33
2022/01/19 05:55:12;;;;;;;32.80;10.52;;;;;;;5.74;100.00;102684.19;5083566;28;20043;-32
2022/01/19 05:57:40;;;;;;;25.20;9.90;;;;;;;5.77;100.00;102680.97;5080403;28;20052;-36
2022/01/19 06:00:09;;;;;;;23.00;9.27;;;;;;;5.77;100.00;102680.97;5065582;28;20506;-32
2022/01/19 06:02:52;;;;;;;20.98;9.10;;;;;;;5.78;100.00;102667.97;5079105;28;20646;-39
2022/01/19 06:05:29;;;;;;;28.10;9.50;;;;;;;5.78;100.00;102663.28;5071055;28;20083;-39
2022/01/19 06:08:41;;;;;;;24.13;9.15;;;;;;;5.79;100.00;102670.50;5069833;28;20140;-37
2022/01/19 06:11:10;;;;;;;23.25;9.15;;;;;;;5.78;100.00;102663.28;5074427;28;20072;-42
2022/01/19 06:13:39;;;;;;;24.77;10.02;;;;;;;5.79;100.00;102664.97;5071118;28;20040;-42
2022/01/19 06:16:07;;;;;;;29.17;10.63;;;;;;;5.81;100.00;102662.81;5068909;28;20051;-38
2022/01/19 06:18:40;;;;;;;23.88;10.10;;;;;;;5.79;100.00;102653.88;5070050;28;20042;-40
2022/01/19 06:21:09;;;;;;;25.73;10.38;;;;;;;5.79;100.00;102645.59;5070653;28;20159;-36
2022/01/19 06:23:40;;;;;;;26.27;11.68;;;;;;;5.81;100.00;102642.56;5070269;28;20138;-35
2022/01/19 06:26:10;;;;;;;27.88;10.77;;;;;;;5.82;100.00;102633.19;5072227;28;20169;-35
2022/01/19 06:28:39;;;;;;;30.02;11.45;;;;;;;5.82;100.00;102631.25;5063292;28;20087;-34
2022/01/19 06:31:07;;;;;;;28.38;11.18;;;;;;;5.84;100.00;102620.81;5078946;28;20048;-33
2022/01/19 06:33:37;;;;;;;28.88;11.75;;;;;;;5.83;100.00;102612.72;5064618;28;20407;-34
2022/01/19 06:36:06;;;;;;;28.08;12.20;;;;;;;5.84;100.00;102612.50;5074021;28;20047;-30
2022/01/19 06:38:49;;;;;;;25.20;10.27;;;;;;;5.80;100.00;102611.25;5082143;28;20043;-35
2022/01/19 06:41:27;;;;;;;25.38;10.82;;;;;;;5.81;100.00;102599.09;5074193;28;20056;-32
2022/01/19 06:43:54;;;;;;;25.80;11.40;;;;;;;5.83;100.00;102593.31;5082584;28;20044;-35
2022/01/19 06:46:23;;;;;;;26.95;11.13;;;;;;;5.84;100.00;102592.25;5060614;28;20067;-32
2022/01/19 06:48:53;;;;;;;25.75;11.10;;;;;;;5.85;100.00;102586.50;5060998;28;20056;-38
2022/01/19 06:51:21;;;;;;;24.98;10.55;;;;;;;5.86;100.00;102592.88;5059510;28;20154;-37
2022/01/19 06:53:53;;;;;;;19.40;9.20;;;;;;;5.87;100.00;102589.88;5070609;28;20409;-41
2022/01/19 06:56:27;;;;;;;24.52;11.02;;;;;;;5.86;100.00;102582.66;5059630;28;20060;-37
2022/01/19 06:59:17;;;;;;;27.65;11.77;;;;;;;5.87;100.00;102572.41;5069686;28;20135;-33
2022/01/19 07:02:05;;;;;;;22.88;12.02;;;;;;;5.87;100.00;102573.25;5073447;28;20405;-34
2022/01/19 07:04:51;;;;;;;29.02;13.32;;;;;;;5.87;100.00;102558.56;5060968;28;20421;-36
2022/01/19 07:07:41;;;;;;;25.63;13.13;;;;;;;5.85;100.00;102553.25;5069633;28;20043;-35
2022/01/19 07:10:10;;;;;;;25.52;13.10;;;;;;;5.87;100.00;102548.31;5073126;28;20037;-32
2022/01/19 07:12:39;;;;;;;29.02;14.10;;;;;;;5.89;100.00;102553.69;5070256;28;20131;-33
2022/01/19 07:15:09;;;;;;;29.85;14.57;;;;;;;5.91;100.00;102550.69;5059771;28;20413;-37
2022/01/19 07:17:37;;;;;;;29.30;13.38;;;;;;;5.91;100.00;102545.13;5072277;28;20036;-33
2022/01/19 07:20:08;;;;;;;24.17;12.25;;;;;;;5.92;100.00;102544.06;5064140;28;20044;-32
2022/01/19 07:22:37;;;;;;;27.55;11.73;;;;;;;5.92;100.00;102535.75;5066158;28;20057;-37
2022/01/19 07:25:08;;;;;;;24.95;11.25;;;;;;;5.92;100.00;102536.59;5068539;28;20086;-39
2022/01/19 07:27:36;;;;;;;24.70;11.48;;;;;;;5.94;100.00;102523.38;5071636;28;20563;-38
2022/01/19 07:30:06;;;;;;;24.83;10.82;;;;;;;5.96;100.00;102525.91;5067273;28;20053;-34
2022/01/19 07:32:36;;;;;;;26.40;11.32;;;;;;;5.98;100.00;102521.84;5063122;28;20114;-36
2022/01/19 07:35:08;;;;;;;24.52;10.85;;;;;;;5.96;100.00;102521.22;5065768;28;20057;-36
2022/01/19 07:37:36;;;;;;;22.65;9.68;;;;;;;5.99;100.00;102517.16;5067085;28;20478;-33
2022/01/19 07:40:05;;;;;;;23.70;9.80;;;;;;;6.00;100.00;102516.06;5071812;28;20537;-37
2022/01/19 07:42:33;;;;;;;24.05;9.90;;;;;;;6.06;100.00;102509.59;5066011;28;20049;-33
2022/01/19 07:45:05;;;;;;;20.58;9.20;;;;;;;6.05;100.00;102492.13;5072610;28;20091;-32
2022/01/19 07:47:47;;;;;;;22.10;9.30;;;;;;;6.08;100.00;102491.69;5061780;28;20052;-39
2022/01/19 07:50:39;;;;;;;19.15;8.60;;;;;;;6.12;100.00;102483.75;5072075;28;20489;-33
2022/01/19 07:53:43;;;;;;;20.15;8.63;;;;;;;6.14;100.00;102490.75;5049487;28;20433;-39
2022/01/19 07:56:33;;;;;;;19.63;10.02;;;;;;;6.18;100.00;102483.69;5059992;28;20063;-38
2022/01/19 07:59:11;;;;;;;22.20;9.68;;;;;;;6.23;100.00;102482.97;5066453;28;20052;-37
2022/01/19 08:01:56;;;;;;;25.20;10.93;;;;;;;6.25;100.00;102486.38;5061354;28;20048;-32
2022/01/19 08:04:46;;;;;;;21.23;10.55;;;;;;;6.27;100.00;102488.91;5071379;28;20533;-34
2022/01/19 08:07:19;;;;;;;17.23;10.05;;;;;;;6.31;100.00;102495.69;5061750;28;20068;-38
2022/01/19 08:09:50;;;;;;;19.48;9.95;;;;;;;6.33;100.00;102488.00;5065015;28;20461;-40
2022/01/19 08:12:19;;;;;;;22.73;11.98;;;;;;;6.35;100.00;102483.06;5061358;28;20144;-31
2022/01/19 08:14:49;;;;;;;22.15;11.05;;;;;;;6.34;100.00;102475.84;5065613;28;20047;-32
2022/01/19 08:17:22;;;;;;;22.13;11.27;;;;;;;6.34;100.00;102473.91;5059388;28;20147;-36
2022/01/19 08:19:49;;;;;;;21.80;10.73;;;;;;;6.33;100.00;102466.66;5065298;28;20464;-35
2022/01/19 08:22:17;;;;;;;20.67;10.75;;;;;;;6.30;100.00;102461.59;5070113;28;20417;-37
2022/01/19 08:25:16;;;;;;;25.65;11.27;;;;;;;6.29;100.00;102457.13;5056991;28;20063;-34
2022/01/19 08:27:45;;;;;;;22.23;10.57;;;;;;;6.30;100.00;102455.19;5069980;28;20060;-36
2022/01/19 08:30:15;;;;;;;21.95;10.38;;;;;;;6.29;100.00;102453.50;5063613;28;20180;-36
2022/01/19 08:32:43;;;;;;;19.88;10.20;;;;;;;6.27;100.00;102456.50;5058516;28;20091;-39
2022/01/19 08:35:17;;;;;;;18.15;10.10;;;;;;;6.21;100.00;102455.47;5070326;28;20071;-36
2022/01/19 08:38:08;;;;;;;30.42;10.32;;;;;;;6.21;100.00;102440.78;5059861;28;20052;-37
2022/01/19 08:40:47;;;;;;;19.83;8.50;;;;;;;6.20;100.00;102445.47;5064900;28;20464;-31
2022/01/19 08:43:19;;;;;;;17.70;8.13;;;;;;;6.18;100.00;102441.28;5069953;28;20045;-36
2022/01/19 08:45:47;;;;;;;16.10;7.10;;;;;;;6.18;100.00;102436.56;5070436;28;20123;-33
2022/01/19 08:48:19;;;;;;;17.15;8.00;;;;;;;6.17;100.00;102422.94;5069948;28;20477;-39
2022/01/19 08:51:08;;;;;;;19.90;7.68;;;;;;;6.17;100.00;102422.94;5081757;28;20045;-35
2022/01/19 08:53:49;;;;;;;13.48;6.47;;;;;;;6.14;100.00;102406.78;5060429;28;20417;-38
2022/01/19 08:56:39;;;;;;;17.38;6.45;;;;;;;6.09;100.00;102396.38;5054594;28;20048;-40
2022/01/19 08:59:07;;;;;;;16.33;6.55;;;;;;;6.08;100.00;102407.69;5063450;28;20097;-35
2022/01/19 09:01:35;;;;;;;10.98;5.00;;;;;;;6.12;100.00;102398.69;5070870;28;20164;-34
2022/01/19 09:04:03;;;;;;;16.20;4.70;;;;;;;6.12;100.00;102415.31;5070918;28;20090;-37
2022/01/19 09:06:31;;;;;;;14.90;4.18;;;;;;;6.14;100.00;102413.16;5070253;28;20382;-35
2022/01/19 09:08:59;;;;;;;11.75;3.88;;;;;;;6.13;100.00;102410.63;5069730;28;20108;-35
2022/01/19 09:11:27;;;;;;;9.02;3.05;;;;;;;6.15;100.00;102402.94;5069608;28;20075;-35
2022/01/19 09:13:57;;;;;;;8.52;3.17;;;;;;;6.14;100.00;102401.22;5070369;28;20048;-32
2022/01/19 09:16:25;;;;;;;11.02;3.22;;;;;;;6.14;100.00;102413.16;5070555;28;20048;-34
2022/01/19 09:18:52;;;;;;;11.10;2.83;;;;;;;6.15;100.00;102412.09;5067754;28;20041;-33
2022/01/19 09:21:20;;;;;;;10.38;2.85;;;;;;;6.18;100.00;102410.78;5070022;28;20382;-39
2022/01/19 09:23:48;;;;;;;9.63;2.60;;;;;;;6.15;100.00;102405.69;5070703;28;20498;-30
2022/01/19 09:26:15;;;;;;;9.48;2.40;;;;;;;6.13;100.00;102394.00;5070902;28;20041;-37
2022/01/19 09:28:43;;;;;;;11.73;3.13;;;;;;;6.13;100.00;102396.75;5069735;28;20036;-40
2022/01/19 09:31:34;;;;;;;7.20;2.70;;;;;;;6.11;100.00;102390.59;5071048;28;20051;-41
2022/01/19 09:34:08;;;;;;;9.38;3.03;;;;;;;6.10;100.00;102389.75;5070051;28;20493;-40
2022/01/19 09:36:44;;;;;;;11.65;2.75;;;;;;;6.17;100.00;102395.22;5070861;28;20058;-38
2022/01/19 09:39:14;;;;;;;17.00;3.08;;;;;;;6.17;100.00;102400.78;5070499;28;20068;-43
2022/01/19 09:41:42;;;;;;;11.82;2.80;;;;;;;6.18;100.00;102392.22;5070226;28;20057;-34
2022/01/19 09:44:10;;;;;;;10.07;2.92;;;;;;;6.18;100.00;102389.44;5070515;28;20060;-34
2022/01/19 09:46:40;;;;;;;10.48;3.67;;;;;;;6.23;100.00;102378.50;5070388;28;20047;-36
2022/01/19 09:49:07;;;;;;;11.57;3.13;;;;;;;6.26;100.00;102376.34;5069588;28;20143;-37
2022/01/19 09:51:36;;;;;;;10.90;3.25;;;;;;;6.30;100.00;102378.41;5070168;28;20052;-36
2022/01/19 09:54:04;;;;;;;10.82;2.97;;;;;;;6.33;100.00;102371.56;5070442;28;20054;-32
2022/01/19 09:56:32;;;;;;;9.65;3.05;;;;;;;6.37;100.00;102368.09;5069678;28;20043;-39
2022/01/19 09:58:59;;;;;;;13.05;3.75;;;;;;;6.41;100.00;102352.66;5070520;28;20044;-33
2022/01/19 10:01:27;;;;;;;12.45;3.72;;;;;;;6.48;100.00;102349.78;5070281;28;20056;-33
2022/01/19 10:03:57;;;;;;;10.82;3.90;;;;;;;6.52;100.00;102343.56;5071170;28;20431;-35
2022/01/19 10:06:25;;;;;;;13.30;3.67;;;;;;;6.59;100.00;102328.75;5074116;28;20420;-39
2022/01/19 10:08:54;;;;;;;14.10;3.70;;;;;;;6.66;100.00;102323.91;5073206;28;20516;-37
2022/01/19 10:11:29;;;;;;;11.82;3.13;;;;;;;6.69;100.00;102321.53;5074287;28;20175;-38
2022/01/19 10:17:02;;;;;;;13.13;3.28;;;;;;;6.77;100.00;102296.22;5073265;28;20402;-38
2022/01/19 10:19:34;;;;;;;16.98;4.03;;;;;;;6.78;100.00;102300.69;5064818;28;20124;-42
2022/01/19 10:22:08;;;;;;;13.23;3.58;;;;;;;6.88;100.00;102292.59;5073877;28;20040;-35
2022/01/19 10:24:50;;;;;;;10.35;2.92;;;;;;;6.94;100.00;102301.91;5073233;28;20055;-37
2022/01/19 10:27:29;;;;;;;12.20;3.30;;;;;;;6.98;100.00;102314.22;5073812;28;20105;-38
2022/01/19 10:30:13;;;;;;;15.02;3.38;;;;;;;6.95;100.00;102299.97;5073053;28;20461;-34
2022/01/19 10:32:42;;;;;;;15.43;3.92;;;;;;;6.89;100.00;102291.53;5073715;28;20425;-32
2022/01/19 10:35:19;;;;;;;14.88;3.40;;;;;;;6.90;100.00;102279.34;5073679;28;20056;-31
2022/01/19 10:37:49;;;;;;;13.13;3.10;;;;;;;6.85;100.00;102247.84;5072827;28;20047;-38
2022/01/19 10:40:20;;;;;;;11.45;3.20;;;;;;;6.84;100.00;102240.59;5073798;28;20045;-32
2022/01/19 10:42:48;;;;;;;9.68;3.30;;;;;;;6.86;100.00;102243.97;5073494;28;20056;-32
2022/01/19 10:45:16;;;;;;;17.55;3.72;;;;;;;6.93;100.00;102253.06;5072695;28;20051;-37
2022/01/19 10:47:47;;;;;;;17.67;3.50;;;;;;;7.01;100.00;102257.38;5073458;28;20067;-34
2022/01/19 10:50:22;;;;;;;13.57;3.10;;;;;;;7.04;100.00;102263.28;5073642;28;20059;-34
2022/01/19 10:52:50;;;;;;;13.57;3.10;;;;;;;7.04;100.00;102268.84;5072792;28;20105;-34
2022/01/19 10:55:30;;;;;;;9.27;2.80;;;;;;;7.04;100.00;102266.06;5073297;28;20505;-38
2022/01/19 10:57:59;;;;;;;15.77;4.20;;;;;;;7.03;100.00;102269.94;5072683;28;20300;-34
2022/01/19 11:00:30;;;;;;;16.98;2.92;;;;;;;7.03;100.00;102253.28;5072925;28;20060;-35
2022/01/19 11:03:13;;;;;;;14.43;3.40;;;;;;;6.97;100.00;102240.38;5073455;28;20055;-38
2022/01/19 11:05:43;;;;;;;;;;;;;;;6.90;100.00;102236.88;5072789;28;20115;-38
2022/01/19 11:08:11;;;;;;;12.23;3.15;;;;;;;6.87;100.00;102240.97;5073212;28;19921;-39
2022/01/19 11:10:40;;;;;;;11.77;3.20;;;;;;;6.89;100.00;102240.72;5072827;28;20045;-37
2022/01/19 11:13:13;;;;;;;21.27;4.10;;;;;;;6.91;100.00;102236.63;5061248;28;20052;-34
2022/01/19 11:15:43;;;;;;;13.77;3.42;;;;;;;6.89;100.00;102218.53;5071773;28;20044;-36
2022/01/19 11:18:11;;;;;;;15.32;3.17;;;;;;;6.87;100.00;102224.31;5073197;28;20071;-37
2022/01/19 11:20:47;;;;;;;10.45;3.20;;;;;;;6.87;100.00;102216.00;5072245;28;20098;-39
2022/01/19 11:23:27;;;;;;;14.65;3.58;;;;;;;6.86;100.00;102208.75;5072859;28;20052;-38
2022/01/19 11:25:58;;;;;;;15.15;3.17;;;;;;;6.87;100.00;102201.28;5072779;28;20051;-33
2022/01/19 11:28:34;;;;;;;12.80;3.25;;;;;;;6.90;100.00;102198.03;5072592;28;20089;-33
2022/01/19 11:31:06;;;;;;;14.45;2.90;;;;;;;6.87;100.00;102195.72;5072292;28;20052;-33
2022/01/19 11:33:41;;;;;;;17.25;3.67;;;;;;;6.85;100.00;102186.81;5072003;28;20048;-38
2022/01/19 11:36:22;;;;;;;19.58;3.47;;;;;;;6.84;100.00;102188.72;5072362;28;20052;-35
2022/01/19 11:38:51;;;;;;;14.32;3.35;;;;;;;6.82;100.00;102176.19;5072748;28;20403;-37
2022/01/19 11:41:38;;;;;;;17.02;3.40;;;;;;;6.82;100.00;102154.84;5071359;28;20089;-39
2022/01/19 11:44:08;;;;;;;15.48;3.40;;;;;;;6.83;100.00;102155.69;5072241;28;20049;-38
2022/01/19 11:46:40;;;;;;;17.02;3.20;;;;;;;6.83;100.00;102133.50;5072282;28;20098;-34
2022/01/19 11:49:10;;;;;;;14.20;3.70;;;;;;;6.87;100.00;102137.47;5074128;28;20075;-35
2022/01/19 11:51:42;;;;;;;17.52;3.97;;;;;;;6.89;100.00;102130.59;5086112;28;20055;-33
2022/01/19 11:54:19;;;;;;;16.38;3.58;;;;;;;6.90;100.00;102123.97;5083059;28;20048;-38
2022/01/19 11:57:08;;;;;;;21.33;4.20;;;;;;;6.92;100.00;102112.63;5085741;28;20135;-37
2022/01/19 12:00:05;;;;;;;16.27;4.03;;;;;;;6.92;100.00;102090.41;5083595;28;20052;-39
2022/01/19 12:02:42;;;;;;;20.52;4.40;;;;;;;6.93;100.00;102094.03;5087226;28;20044;-35
2022/01/19 12:05:36;;;;;;;23.05;3.92;;;;;;;7.00;100.00;102105.81;5085001;28;20047;-42
2022/01/19 12:08:23;;;;;;;15.18;3.88;;;;;;;7.09;100.00;102099.66;5076655;28;20044;-39
2022/01/19 12:10:56;;;;;;;19.85;3.78;;;;;;;7.14;100.00;102102.56;5084760;28;20481;-32
2022/01/19 12:16:30;;;;;;;18.20;3.80;;;;;;;7.19;100.00;102093.50;5079152;28;20508;-38
2022/01/19 12:19:14;;;;;;;15.00;4.10;;;;;;;7.20;100.00;102079.34;5076361;28;20041;-40
2022/01/19 12:21:45;;;;;;;15.57;3.67;;;;;;;7.18;100.00;102064.03;5075752;28;20072;-33
2022/01/19 12:24:36;;;;;;;18.83;3.95;;;;;;;7.20;100.00;102057.13;5079234;28;20447;-36
2022/01/19 12:27:23;;;;;;;18.85;3.60;;;;;;;7.25;100.00;102053.63;5082713;28;20091;-37
2022/01/19 12:29:53;;;;;;;18.73;4.03;;;;;;;7.26;100.00;102056.16;5077224;28;20055;-31
2022/01/19 12:32:45;;;;;;;19.83;4.47;;;;;;;7.30;100.00;102048.16;5081882;28;20066;-36
2022/01/19 12:35:18;;;;;;;18.35;4.20;;;;;;;7.24;100.00;102038.03;5080063;28;20047;-34
2022/01/19 12:37:48;;;;;;;16.27;4.23;;;;;;;7.24;100.00;102046.38;5078858;28;20055;-38
2022/01/19 12:40:33;;;;;;;26.83;4.32;;;;;;;7.25;100.00;102039.72;5065723;28;20663;-40
2022/01/19 12:43:03;;;;;;;16.55;4.18;;;;;;;7.23;100.00;102042.75;5083949;28;20044;-39
2022/01/19 12:45:33;;;;;;;16.77;4.47;;;;;;;7.24;100.00;102033.34;5083561;28;20044;-32
2022/01/19 12:48:02;;;;;;;26.00;5.25;;;;;;;7.24;100.00;102029.72;5081930;28;20485;-35
2022/01/19 12:50:44;;;;;;;20.08;4.90;;;;;;;7.25;100.00;102018.38;5083677;28;20051;-35
2022/01/19 12:53:19;;;;;;;18.88;4.75;;;;;;;7.25;100.00;102012.81;5082596;28;20058;-32